createdAt,value
2018-09-27T00:00:01.246Z,15.00
2018-09-27T00:02:29.559Z,15.00
2018-09-27T00:04:57.939Z,14.90
2018-09-27T00:07:26.299Z,15.00
2018-09-27T00:09:54.563Z,15.00
2018-09-27T00:12:22.885Z,15.00
2018-09-27T00:14:51.220Z,15.00
2018-09-27T00:17:19.513Z,15.00
2018-09-27T00:19:47.759Z,15.00
2018-09-27T00:22:21.081Z,15.00
2018-09-27T00:24:49.332Z,15.00
2018-09-27T00:27:19.799Z,15.00
2018-09-27T00:29:48.146Z,15.00
2018-09-27T00:32:16.467Z,15.00
2018-09-27T00:34:44.807Z,15.00
2018-09-27T00:37:13.082Z,15.00
2018-09-27T00:39:41.358Z,15.10
2018-09-27T00:42:09.673Z,15.10
2018-09-27T00:44:38.041Z,15.10
2018-09-27T00:47:06.386Z,15.10
2018-09-27T00:49:34.697Z,15.10
2018-09-27T00:52:04.122Z,15.00
2018-09-27T00:54:33.568Z,15.00
2018-09-27T00:57:07.290Z,15.10
2018-09-27T00:59:35.566Z,15.00
2018-09-27T01:02:04.841Z,15.10
2018-09-27T01:04:33.180Z,15.00
2018-09-27T01:07:03.446Z,15.10
2018-09-27T01:09:31.808Z,15.10
2018-09-27T01:12:00.119Z,15.10
2018-09-27T01:14:28.410Z,15.10
2018-09-27T01:16:56.679Z,15.10
2018-09-27T01:19:24.984Z,15.10
2018-09-27T01:21:53.337Z,15.10
2018-09-27T01:24:21.617Z,15.10
2018-09-27T01:26:49.982Z,15.10
2018-09-27T01:29:18.306Z,15.10
2018-09-27T01:31:47.508Z,15.10
2018-09-27T01:34:15.875Z,15.00
2018-09-27T01:36:45.146Z,15.00
2018-09-27T01:39:13.440Z,15.00
2018-09-27T01:41:41.793Z,15.00
2018-09-27T01:44:10.126Z,15.00
2018-09-27T01:46:38.456Z,15.00
2018-09-27T01:49:06.773Z,15.00
2018-09-27T01:51:35.138Z,15.10
2018-09-27T01:54:03.553Z,15.00
2018-09-27T01:56:31.907Z,15.00
2018-09-27T01:59:00.279Z,15.00
2018-09-27T02:01:28.608Z,15.00
2018-09-27T02:03:56.920Z,15.00
2018-09-27T02:06:25.266Z,15.00
2018-09-27T02:08:53.583Z,15.00
2018-09-27T02:11:21.849Z,15.00
2018-09-27T02:13:50.165Z,15.00
2018-09-27T02:16:18.518Z,15.00
2018-09-27T02:18:46.916Z,15.00
2018-09-27T02:21:15.290Z,15.00
2018-09-27T02:23:43.704Z,15.00
2018-09-27T02:26:12.022Z,15.00
2018-09-27T02:28:40.432Z,14.90
2018-09-27T02:31:08.904Z,14.90
2018-09-27T02:33:37.283Z,14.90
2018-09-27T02:36:05.320Z,14.80
2018-09-27T02:38:33.726Z,14.70
2018-09-27T02:41:01.967Z,14.70
2018-09-27T02:43:30.279Z,14.60
2018-09-27T02:45:58.545Z,14.50
2018-09-27T02:52:02.034Z,14.30
2018-09-27T02:54:31.362Z,14.40
2018-09-27T02:56:59.638Z,14.40
2018-09-27T02:59:28.024Z,14.40
2018-09-27T03:01:56.311Z,14.30
2018-09-27T03:04:24.608Z,14.30
2018-09-27T03:06:52.967Z,14.30
2018-09-27T03:16:18.256Z,14.40
2018-09-27T03:18:46.638Z,14.30
2018-09-27T03:21:14.969Z,14.30
2018-09-27T03:23:43.284Z,14.30
2018-09-27T03:26:11.620Z,14.40
2018-09-27T03:28:40.041Z,14.40
2018-09-27T03:31:08.382Z,14.50
2018-09-27T03:33:36.697Z,14.50
2018-09-27T03:36:05.058Z,14.50
2018-09-27T03:38:33.343Z,14.50
2018-09-27T03:41:01.713Z,14.40
2018-09-27T03:43:29.978Z,14.50
2018-09-27T03:45:58.290Z,14.50
2018-09-27T03:48:26.641Z,14.60
2018-09-27T03:50:54.931Z,14.60
2018-09-27T03:53:23.360Z,14.60
2018-09-27T03:55:51.693Z,14.60
2018-09-27T03:58:20.049Z,14.60
2018-09-27T04:00:48.378Z,14.70
2018-09-27T04:03:16.756Z,14.60
2018-09-27T04:05:45.128Z,14.70
2018-09-27T04:08:13.478Z,14.70
2018-09-27T04:10:41.801Z,14.80
2018-09-27T04:13:10.180Z,14.70
2018-09-27T04:15:38.612Z,14.80
2018-09-27T04:18:06.931Z,14.70
2018-09-27T04:20:39.764Z,14.80
2018-09-27T04:23:08.084Z,14.80
2018-09-27T04:25:36.465Z,14.80
2018-09-27T04:28:04.853Z,14.80
2018-09-27T04:30:33.210Z,14.80
2018-09-27T04:33:01.557Z,14.80
2018-09-27T04:35:29.894Z,14.80
2018-09-27T04:37:58.248Z,14.80
2018-09-27T04:40:26.662Z,14.80
2018-09-27T04:42:55.009Z,14.80
2018-09-27T04:45:23.368Z,14.80
2018-09-27T04:47:52.673Z,14.90
2018-09-27T04:50:21.062Z,14.90
2018-09-27T04:52:49.433Z,14.90
2018-09-27T04:55:17.834Z,14.80
2018-09-27T04:57:46.193Z,14.80
2018-09-27T05:00:14.595Z,14.80
2018-09-27T05:02:43.451Z,14.80
2018-09-27T05:05:11.754Z,14.90
2018-09-27T05:07:40.154Z,14.80
2018-09-27T05:10:08.569Z,14.90
2018-09-27T05:12:36.885Z,14.90
2018-09-27T05:15:05.260Z,14.90
2018-09-27T05:17:33.662Z,14.90
2018-09-27T05:20:02.959Z,14.90
2018-09-27T05:22:35.228Z,15.00
2018-09-27T05:25:03.686Z,15.00
2018-09-27T05:27:32.130Z,15.00
2018-09-27T05:30:00.431Z,15.00
2018-09-27T05:32:29.746Z,15.00
2018-09-27T05:34:58.106Z,15.10
2018-09-27T05:37:26.404Z,15.10
2018-09-27T05:39:54.781Z,15.10
2018-09-27T05:42:23.089Z,15.10
2018-09-27T05:44:51.500Z,15.10
2018-09-27T05:47:19.846Z,15.20
2018-09-27T05:49:48.243Z,15.20
2018-09-27T05:52:16.645Z,15.20
2018-09-27T05:54:44.957Z,15.20
2018-09-27T05:57:13.230Z,15.20
2018-09-27T05:59:41.540Z,15.30
2018-09-27T06:02:10.255Z,15.30
2018-09-27T06:04:38.636Z,15.40
2018-09-27T06:07:06.977Z,15.40
2018-09-27T06:09:35.361Z,15.40
2018-09-27T06:12:03.789Z,15.40
2018-09-27T06:14:32.104Z,15.50
2018-09-27T06:17:00.598Z,15.50
2018-09-27T06:19:28.978Z,15.50
2018-09-27T06:21:57.329Z,15.60
2018-09-27T06:24:25.617Z,15.60
2018-09-27T06:26:54.003Z,15.70
2018-09-27T06:29:23.295Z,15.70
2018-09-27T06:31:51.699Z,15.80
2018-09-27T06:34:20.042Z,15.70
2018-09-27T06:36:48.327Z,15.80
2018-09-27T06:39:16.731Z,15.80
2018-09-27T06:41:45.157Z,15.90
2018-09-27T06:44:13.470Z,15.90
2018-09-27T06:46:41.852Z,15.90
2018-09-27T06:49:10.297Z,16.00
2018-09-27T06:51:39.642Z,16.00
2018-09-27T06:54:08.058Z,15.90
2018-09-27T06:56:36.562Z,16.00
2018-09-27T06:59:04.804Z,16.00
2018-09-27T07:01:33.210Z,16.00
2018-09-27T07:04:01.511Z,16.10
2018-09-27T07:06:29.872Z,16.00
2018-09-27T07:08:58.264Z,16.10
2018-09-27T07:11:26.626Z,16.10
2018-09-27T07:13:54.948Z,16.10
2018-09-27T07:16:23.381Z,16.10
2018-09-27T07:18:51.832Z,16.10
2018-09-27T07:21:20.090Z,16.30
2018-09-27T07:23:48.535Z,16.20
2018-09-27T07:26:16.883Z,16.30
2018-09-27T07:28:45.253Z,16.30
2018-09-27T07:31:13.697Z,16.30
2018-09-27T07:33:42.108Z,16.40
2018-09-27T07:36:10.603Z,16.50
2018-09-27T07:38:39.050Z,16.50
2018-09-27T07:41:07.338Z,16.60
2018-09-27T07:43:35.783Z,16.60
2018-09-27T07:46:06.168Z,16.60
2018-09-27T07:48:35.607Z,16.90
2018-09-27T07:51:03.945Z,16.90
2018-09-27T07:53:32.334Z,17.00
2018-09-27T07:56:01.730Z,17.00
2018-09-27T07:58:30.102Z,17.00
2018-09-27T08:00:58.471Z,17.10
2018-09-27T08:03:26.869Z,17.40
2018-09-27T08:05:55.240Z,17.40
2018-09-27T08:08:23.674Z,17.30
2018-09-27T08:10:52.011Z,17.40
2018-09-27T08:13:20.392Z,17.60
2018-09-27T08:15:48.738Z,18.40
2018-09-27T08:18:17.117Z,19.20
2018-09-27T08:20:45.553Z,19.70
2018-09-27T08:23:13.899Z,20.20
2018-09-27T08:25:42.284Z,21.20
2018-09-27T08:28:10.678Z,21.40
2018-09-27T08:30:39.069Z,22.10
2018-09-27T08:33:07.432Z,22.20
2018-09-27T08:35:35.784Z,22.70
2018-09-27T08:38:04.171Z,23.10
2018-09-27T08:40:33.609Z,22.40
2018-09-27T08:43:01.942Z,22.70
2018-09-27T08:45:31.439Z,23.10
2018-09-27T08:47:59.647Z,23.00
2018-09-27T08:50:27.988Z,22.60
2018-09-27T08:52:56.369Z,21.70
2018-09-27T08:55:24.792Z,22.60
2018-09-27T08:57:53.131Z,23.40
2018-09-27T09:00:22.406Z,24.00
2018-09-27T09:02:52.731Z,24.10
2018-09-27T09:05:21.016Z,23.60
2018-09-27T09:07:49.292Z,23.10
2018-09-27T09:10:17.696Z,23.60
2018-09-27T09:12:46.129Z,23.80
2018-09-27T09:15:14.455Z,23.90
2018-09-27T09:17:42.839Z,24.10
2018-09-27T09:20:11.226Z,24.40
2018-09-27T09:22:39.572Z,24.70
2018-09-27T09:25:07.852Z,25.50
2018-09-27T09:27:36.253Z,25.80
2018-09-27T09:30:04.641Z,26.10
2018-09-27T09:32:33.893Z,26.40
2018-09-27T09:35:02.171Z,26.40
2018-09-27T09:37:31.455Z,26.40
2018-09-27T09:40:00.817Z,25.30
2018-09-27T09:42:29.169Z,25.50
2018-09-27T09:44:58.482Z,25.20
2018-09-27T09:47:30.533Z,25.00
2018-09-27T09:49:58.967Z,25.60
2018-09-27T09:52:27.353Z,25.90
2018-09-27T09:54:55.822Z,25.80
2018-09-27T09:57:24.165Z,25.70
2018-09-27T09:59:52.573Z,25.80
2018-09-27T10:02:20.972Z,25.70
2018-09-27T10:04:50.226Z,25.70
2018-09-27T10:07:18.583Z,25.60
2018-09-27T10:09:46.905Z,25.70
2018-09-27T10:12:15.268Z,25.00
2018-09-27T10:14:43.701Z,25.20
2018-09-27T10:17:12.036Z,25.30
2018-09-27T10:19:40.415Z,25.50
2018-09-27T10:22:10.781Z,25.90
2018-09-27T10:24:47.501Z,26.00
2018-09-27T10:27:16.827Z,26.10
2018-09-27T10:29:45.210Z,25.50
2018-09-27T10:32:13.556Z,26.00
2018-09-27T10:34:42.149Z,26.70
2018-09-27T10:37:10.583Z,26.90
2018-09-27T10:39:38.909Z,26.80
2018-09-27T10:42:07.256Z,27.10
2018-09-27T10:44:35.550Z,26.80
2018-09-27T10:47:04.356Z,26.60
2018-09-27T10:49:32.730Z,26.50
2018-09-27T10:52:01.083Z,26.80
2018-09-27T10:54:29.367Z,26.90
2018-09-27T10:56:57.650Z,26.60
2018-09-27T10:59:26.055Z,26.40
2018-09-27T11:01:54.419Z,25.90
2018-09-27T11:04:22.840Z,25.90
2018-09-27T11:06:51.188Z,25.70
2018-09-27T11:09:19.567Z,26.30
2018-09-27T11:11:47.933Z,26.40
2018-09-27T11:14:16.402Z,26.30
2018-09-27T11:16:44.726Z,25.90
2018-09-27T11:19:13.085Z,25.60
2018-09-27T11:21:41.512Z,25.70
2018-09-27T11:24:09.884Z,25.60
2018-09-27T11:26:38.213Z,25.50
2018-09-27T11:29:12.016Z,25.30
2018-09-27T11:31:45.683Z,25.00
2018-09-27T11:34:14.447Z,25.20
2018-09-27T11:36:42.784Z,24.90
2018-09-27T11:39:11.457Z,24.70
2018-09-27T11:41:39.789Z,24.70
2018-09-27T11:44:08.498Z,24.60
2018-09-27T11:46:36.812Z,24.40
2018-09-27T11:49:05.147Z,24.60
2018-09-27T11:51:33.557Z,24.30
2018-09-27T11:54:02.902Z,24.00
2018-09-27T11:56:31.291Z,23.50
2018-09-27T11:59:01.588Z,23.50
2018-09-27T12:01:30.031Z,23.90
2018-09-27T12:03:58.348Z,24.10
2018-09-27T12:06:26.853Z,24.30
2018-09-27T12:08:55.174Z,24.20
2018-09-27T12:11:23.480Z,24.10
2018-09-27T12:13:51.858Z,24.20
2018-09-27T12:16:20.288Z,24.10
2018-09-27T12:18:48.599Z,24.20
2018-09-27T12:21:16.899Z,24.00
2018-09-27T12:23:45.319Z,23.80
2018-09-27T12:26:13.673Z,23.70
2018-09-27T12:28:42.086Z,23.90
2018-09-27T12:31:10.530Z,24.10
2018-09-27T12:33:38.798Z,23.60
2018-09-27T12:36:07.271Z,23.10
2018-09-27T12:38:35.797Z,23.10
2018-09-27T12:41:04.160Z,23.40
2018-09-27T12:43:32.509Z,23.40
2018-09-27T12:46:04.936Z,23.60
2018-09-27T12:48:33.296Z,23.30
2018-09-27T12:51:01.590Z,23.50
2018-09-27T12:53:29.942Z,23.80
2018-09-27T12:55:58.370Z,23.80
2018-09-27T12:58:26.691Z,23.90
2018-09-27T13:00:56.392Z,24.10
2018-09-27T13:03:24.841Z,23.90
2018-09-27T13:05:53.188Z,23.70
2018-09-27T13:08:21.541Z,23.50
2018-09-27T13:10:49.929Z,23.60
2018-09-27T13:13:19.284Z,23.50
2018-09-27T13:15:47.627Z,23.60
2018-09-27T13:18:16.009Z,23.50
2018-09-27T13:20:44.401Z,23.30
2018-09-27T13:23:12.769Z,23.30
2018-09-27T13:25:41.222Z,23.40
2018-09-27T13:28:09.520Z,23.50
2018-09-27T13:30:37.857Z,23.60
2018-09-27T13:33:06.395Z,23.60
2018-09-27T13:35:34.735Z,23.30
2018-09-27T13:38:03.112Z,23.20
2018-09-27T13:40:31.556Z,23.00
2018-09-27T13:42:59.888Z,22.90
2018-09-27T13:45:28.230Z,23.00
2018-09-27T13:47:56.589Z,23.00
2018-09-27T13:50:24.929Z,22.90
2018-09-27T13:52:53.419Z,22.90
2018-09-27T13:55:21.845Z,22.80
2018-09-27T13:57:50.183Z,22.60
2018-09-27T14:00:18.518Z,22.90
2018-09-27T14:02:47.844Z,22.90
2018-09-27T14:05:16.179Z,22.90
2018-09-27T14:07:44.498Z,22.80
2018-09-27T14:10:12.900Z,22.80
2018-09-27T14:12:41.356Z,23.00
2018-09-27T14:15:09.739Z,22.90
2018-09-27T14:17:38.149Z,22.80
2018-09-27T14:20:07.547Z,22.90
2018-09-27T14:22:35.897Z,22.70
2018-09-27T14:25:04.279Z,22.80
2018-09-27T14:27:32.946Z,22.80
2018-09-27T14:30:01.344Z,22.70
2018-09-27T14:32:29.732Z,22.70
2018-09-27T14:34:58.071Z,22.70
2018-09-27T14:37:26.385Z,22.70
2018-09-27T14:41:23.999Z,22.60
2018-09-27T14:43:52.324Z,22.80
2018-09-27T14:46:20.762Z,22.80
2018-09-27T14:48:49.088Z,22.70
2018-09-27T14:51:17.529Z,22.80
2018-09-27T14:53:45.887Z,22.80
2018-09-27T14:56:14.237Z,22.70
2018-09-27T14:58:42.847Z,22.70
2018-09-27T15:01:11.466Z,22.60
2018-09-27T15:03:40.112Z,22.70
2018-09-27T15:06:13.251Z,22.60
2018-09-27T15:08:41.657Z,22.70
2018-09-27T15:11:11.022Z,22.80
2018-09-27T15:13:39.515Z,22.70
2018-09-27T15:16:11.699Z,22.60
2018-09-27T15:18:40.221Z,22.60
2018-09-27T15:21:08.535Z,22.60
2018-09-27T15:23:36.886Z,22.60
2018-09-27T15:26:05.261Z,22.50
2018-09-27T15:28:33.588Z,22.50
2018-09-27T15:31:02.032Z,22.30
2018-09-27T15:33:30.436Z,22.40
2018-09-27T15:35:58.768Z,22.30
2018-09-27T15:38:27.253Z,22.20
2018-09-27T15:40:55.589Z,22.20
2018-09-27T15:43:23.911Z,22.20
2018-09-27T15:45:52.243Z,22.20
2018-09-27T15:48:20.552Z,22.10
2018-09-27T15:50:48.903Z,22.10
2018-09-27T15:53:17.201Z,22.00
2018-09-27T15:55:46.505Z,22.00
2018-09-27T15:58:14.879Z,21.90
2018-09-27T16:00:43.249Z,21.80
2018-09-27T16:03:11.629Z,21.80
2018-09-27T16:05:40.011Z,21.70
2018-09-27T16:08:08.546Z,21.60
2018-09-27T16:10:44.839Z,21.60
2018-09-27T16:13:13.135Z,21.50
2018-09-27T16:15:41.499Z,21.40
2018-09-27T16:18:09.950Z,21.40
2018-09-27T16:20:39.307Z,21.20
2018-09-27T16:23:08.675Z,21.20
2018-09-27T16:25:37.090Z,21.10
2018-09-27T16:28:05.742Z,21.00
2018-09-27T16:30:34.027Z,21.00
2018-09-27T16:33:02.346Z,20.90
2018-09-27T16:35:30.792Z,20.90
2018-09-27T16:37:59.234Z,20.90
2018-09-27T16:40:27.665Z,20.80
2018-09-27T16:42:55.921Z,20.80
2018-09-27T16:45:24.218Z,20.70
2018-09-27T16:47:52.616Z,20.60
2018-09-27T16:50:20.944Z,20.50
2018-09-27T16:52:49.261Z,20.50
2018-09-27T16:55:17.681Z,20.40
2018-09-27T16:57:46.035Z,20.30
2018-09-27T17:00:14.414Z,20.20
2018-09-27T17:02:42.808Z,20.20
2018-09-27T17:05:11.169Z,20.10
2018-09-27T17:07:39.970Z,20.00
2018-09-27T17:10:08.384Z,20.00
2018-09-27T17:12:36.713Z,20.00
2018-09-27T17:15:05.209Z,19.80
2018-09-27T17:17:33.567Z,19.80
2018-09-27T17:20:01.937Z,19.70
2018-09-27T17:22:30.407Z,19.50
2018-09-27T17:24:58.741Z,19.50
2018-09-27T17:27:27.104Z,19.40
2018-09-27T17:29:55.480Z,19.40
2018-09-27T17:32:23.923Z,19.40
2018-09-27T17:34:52.364Z,19.30
2018-09-27T17:37:20.715Z,19.20
2018-09-27T17:39:50.035Z,19.20
2018-09-27T17:42:18.391Z,19.10
2018-09-27T17:44:46.793Z,19.10
2018-09-27T17:47:15.119Z,19.00
2018-09-27T17:49:43.652Z,18.90
2018-09-27T17:52:11.949Z,18.80
2018-09-27T17:54:40.302Z,18.80
2018-09-27T17:57:08.829Z,18.70
2018-09-27T17:59:37.153Z,18.70
2018-09-27T18:02:05.514Z,18.60
2018-09-27T18:04:33.925Z,18.60
2018-09-27T18:07:02.341Z,18.60
2018-09-27T18:09:30.651Z,18.60
2018-09-27T18:11:59.082Z,18.60
2018-09-27T18:14:27.430Z,18.60
2018-09-27T18:16:55.861Z,18.50
2018-09-27T18:19:25.320Z,18.60
2018-09-27T18:21:53.699Z,18.60
2018-09-27T18:24:23.108Z,18.60
2018-09-27T18:26:51.467Z,18.60
2018-09-27T18:29:19.853Z,18.50
2018-09-27T18:31:48.256Z,18.40
2018-09-27T18:34:16.679Z,18.40
2018-09-27T18:36:45.024Z,18.30
2018-09-27T18:39:13.733Z,18.30
2018-09-27T18:41:42.628Z,18.20
2018-09-27T18:44:11.229Z,18.10
2018-09-27T18:46:39.668Z,18.10
2018-09-27T18:49:08.818Z,18.00
2018-09-27T18:51:37.326Z,18.00
2018-09-27T18:54:05.708Z,17.90
2018-09-27T18:56:34.259Z,17.80
2018-09-27T18:59:05.713Z,17.80
2018-09-27T19:01:34.131Z,17.70
2018-09-27T19:04:02.585Z,17.60
2018-09-27T19:06:31.033Z,17.60
2018-09-27T19:08:59.478Z,17.60
2018-09-27T19:11:27.874Z,17.50
2018-09-27T19:13:56.456Z,17.50
2018-09-27T19:16:24.961Z,17.50
2018-09-27T19:18:53.314Z,17.40
2018-09-27T19:21:21.724Z,17.40
2018-09-27T19:23:50.500Z,17.40
2018-09-27T19:26:19.015Z,17.40
2018-09-27T19:28:48.381Z,17.30
2018-09-27T19:31:17.677Z,17.20
2018-09-27T19:33:51.339Z,17.20
2018-09-27T19:54:46.374Z,17.10
2018-09-27T19:57:15.640Z,16.90
2018-09-27T19:59:47.561Z,16.80
2018-09-27T20:02:16.860Z,16.80
2018-09-27T20:04:46.154Z,16.70
2018-09-27T20:07:17.038Z,16.70
2018-09-27T20:09:45.423Z,16.60
2018-09-27T20:12:13.909Z,16.70
2018-09-27T20:14:42.670Z,16.60
2018-09-27T20:17:15.059Z,16.50
2018-09-27T20:19:43.524Z,16.40
2018-09-27T20:22:12.498Z,16.40
2018-09-27T20:24:41.148Z,16.40
2018-09-27T20:27:10.716Z,16.40
2018-09-27T20:29:39.191Z,16.30
2018-09-27T20:32:07.604Z,16.20
2018-09-27T20:34:36.102Z,16.20
2018-09-27T20:38:33.824Z,16.10
2018-09-27T20:41:02.304Z,16.10
2018-09-27T20:43:30.788Z,16.10
2018-09-27T20:45:59.146Z,16.00
2018-09-27T20:48:27.524Z,16.10
2018-09-27T20:50:55.909Z,16.00
2018-09-27T20:53:24.398Z,16.00
2018-09-27T20:55:52.766Z,15.90
2018-09-27T20:58:21.281Z,15.90
2018-09-27T21:00:49.749Z,15.80
2018-09-27T21:03:18.167Z,15.80
2018-09-27T21:05:46.478Z,15.70
2018-09-27T21:08:14.908Z,15.60
2018-09-27T21:10:43.234Z,15.50
2018-09-27T21:13:11.571Z,15.30
2018-09-27T21:15:41.921Z,15.20
2018-09-27T21:18:10.230Z,15.10
2018-09-27T21:20:38.580Z,15.10
2018-09-27T21:23:06.963Z,15.10
2018-09-27T21:25:35.323Z,15.00
2018-09-27T21:28:03.720Z,15.00
2018-09-27T21:30:32.082Z,14.90
2018-09-27T21:33:00.468Z,14.80
2018-09-27T21:35:29.120Z,14.80
2018-09-27T21:37:57.452Z,14.80
2018-09-27T21:40:25.805Z,14.80
2018-09-27T21:42:54.209Z,14.80
2018-09-27T21:45:22.547Z,14.80
2018-09-27T21:47:50.850Z,14.70
2018-09-27T21:50:19.338Z,14.70
2018-09-27T21:52:47.711Z,14.70
2018-09-27T21:58:46.312Z,14.60
2018-09-27T22:01:14.707Z,14.60
2018-09-27T22:03:43.087Z,14.50
2018-09-27T22:06:11.472Z,14.50
2018-09-27T22:08:39.933Z,14.50
2018-09-27T22:11:08.330Z,14.50
2018-09-27T22:13:36.701Z,14.50
2018-09-27T22:16:05.144Z,14.50
2018-09-27T22:18:33.443Z,14.50
2018-09-27T22:21:01.799Z,14.50
2018-09-27T22:23:30.134Z,14.40
2018-09-27T22:25:58.482Z,14.50
2018-09-27T22:28:27.817Z,14.50
2018-09-27T22:30:56.180Z,14.50
2018-09-27T22:33:24.586Z,14.50
2018-09-27T22:35:54.837Z,14.40
2018-09-27T22:38:23.232Z,14.30
2018-09-27T22:40:51.549Z,14.20
2018-09-27T22:43:20.905Z,14.20
2018-09-27T22:45:49.177Z,14.20
2018-09-27T22:48:17.495Z,14.10
2018-09-27T22:50:45.844Z,14.10
2018-09-27T22:53:14.219Z,14.10
2018-09-27T22:55:42.529Z,14.00
2018-09-27T22:58:12.868Z,14.00
2018-09-27T23:00:41.216Z,14.00
2018-09-27T23:03:11.550Z,13.90
2018-09-27T23:05:39.938Z,13.90
2018-09-27T23:08:08.392Z,13.80
2018-09-27T23:10:36.654Z,13.80
2018-09-27T23:13:04.996Z,13.70
2018-09-27T23:15:33.316Z,13.60
2018-09-27T23:18:01.632Z,13.50
2018-09-27T23:20:29.988Z,13.40
2018-09-27T23:22:58.280Z,13.40
2018-09-27T23:25:26.643Z,13.30
2018-09-27T23:27:55.032Z,13.20
2018-09-27T23:30:23.386Z,13.30
2018-09-27T23:32:52.756Z,13.20
2018-09-27T23:35:21.112Z,13.10
2018-09-27T23:37:49.477Z,13.10
2018-09-27T23:40:17.855Z,13.00
2018-09-27T23:42:46.253Z,13.00
2018-09-27T23:45:14.589Z,12.90
2018-09-27T23:47:42.895Z,12.90
2018-09-27T23:50:11.242Z,12.80
2018-09-27T23:52:39.540Z,12.80
2018-09-27T23:55:07.894Z,12.70
2018-09-27T23:57:37.270Z,12.70
